Aérodrome :
LOGIN :

S'inscrire | Disclaimer

   EN    FR    IT 

 










Légende :    VFR   VFR Marginal   IFR   IFR Intensif   IFR Très Intensif
Visi : 
Plafond : 
>= 8 km
>= 3000ft
5 à 8 km
1000 à 3000 ft
1500m à 5 km
500 à 1000 ft
800 à 1500m
200 à 500 ft
< 800m
< 200 ft
Symboles :   Orages  Brouillard  Fortes neiges  Fortes précipitations  Vent > 20 kt
SIGMETs :   Divers  Orages  Givrage  Turbulence  Onde Orograph.  Cendres Volcan.







- Altitude de l'aérodrome : 511 ft
- Code IATA : LHA


EDTL - Lahr Schwarzwald

DERNIER METAR :
  • 211350Z 36011KT CAVOK 15/M01 Q1030

METARs EXPIRÉS :
  • 211320Z 36011KT 330V040 CAVOK 15/00 Q1030
  • 211250Z 01010KT 340V050 CAVOK 14/M01 Q1031
  • 211220Z 34011KT 310V030 CAVOK 14/00 Q1031
  • 211150Z 36010KT 330V040 CAVOK 14/M00 Q1031
  • 211120Z 35010KT CAVOK 12/M01 Q1032

TAF TAF EDTL
Valide du 21 à 12h jusqu'au 21 à 21h UTC


211100Z 2112/2121 01010KT CAVOK
BECMG 2117/2119 03004KT
Pas de NOTAMs connus pour ce terrain.



MET'MAP, la Météo Aéronautique d'un coup d'oeil ! - Copyright ORBIFLY Décembre 2007 - Disclaimer

ORBIFLY MET'MAP TEAM :

Programmation & Développement : Alexandra Zaïnal
Conception & Développement : Baudouin d'Aumeries
Co-Programmation & Développement : Marc-Olivier Méhu
Soutien technique & logistique : Manuel Goepfert

Contact : metmap@orbifly.com




SOURCES & CREDITS :

   NOAA